Time;durP1;ratioP1;P1;durP2;ratioP2;P2;SDS_P1;SDS_P2;PMS_P1;PMS_P2;Temp;Humidity;BMP_temperature;BMP_pressure;BME280_temperature;BME280_humidity;BME280_pressure;Samples;Min_cycle;Max_cycle;Signal;HPM_P1;HPM_P2
2021/01/25 00:00:27;;;;;;;0.40;0.40;;;;;;;2.26;60.36;97666.47;4958609;28;20207;-79
2021/01/25 00:02:59;;;;;;;0.40;0.40;;;;;;;2.26;60.22;97666.47;4942838;29;20227;-80
2021/01/25 00:05:45;;;;;;;0.40;0.40;;;;;;;2.37;59.92;97672.91;4952616;23;20563;-79
2021/01/25 00:08:13;;;;;;;0.47;0.47;;;;;;;2.32;60.27;97673.56;4937659;29;20361;-79
2021/01/25 00:10:57;;;;;;;0.40;0.40;;;;;;;2.33;59.89;97672.53;4938545;29;20224;-79
2021/01/25 00:14:08;;;;;;;0.40;0.40;;;;;;;2.30;59.78;97674.78;4949270;23;20279;-80
2021/01/25 00:17:00;;;;;;;0.40;0.40;;;;;;;2.19;60.07;97658.59;4962352;23;20227;-80
2021/01/25 00:19:55;;;;;;;0.40;0.40;;;;;;;2.32;59.86;97675.38;4929615;23;20228;-80
2021/01/25 00:22:40;;;;;;;0.50;0.50;;;;;;;2.24;60.60;97659.81;4945626;23;20204;-79
2021/01/25 00:25:48;;;;;;;0.40;0.40;;;;;;;2.37;60.43;97679.00;4982465;23;20233;-79
2021/01/25 00:28:59;;;;;;;0.40;0.40;;;;;;;2.44;59.74;97684.22;5131846;23;20294;-80
2021/01/25 00:32:16;;;;;;;0.40;0.40;;;;;;;2.41;60.59;97688.13;4974036;23;20241;-80
2021/01/25 00:34:50;;;;;;;0.40;0.40;;;;;;;2.40;60.32;97688.34;4974784;28;20298;-80
2021/01/25 00:37:37;;;;;;;0.40;0.40;;;;;;;2.41;59.62;97690.78;4981745;23;20231;-80
2021/01/25 00:40:22;;;;;;;0.40;0.40;;;;;;;2.44;60.28;97692.97;4973736;23;20227;-80
2021/01/25 00:43:29;;;;;;;0.40;0.40;;;;;;;2.22;60.12;97673.22;4984983;23;20298;-80
2021/01/25 00:47:02;;;;;;;0.40;0.40;;;;;;;2.39;60.23;97703.38;4976605;29;20228;-79
2021/01/25 00:49:40;;;;;;;0.40;0.40;;;;;;;2.53;59.68;97701.44;4974645;28;20306;-80
2021/01/25 00:52:51;;;;;;;0.40;0.40;;;;;;;2.45;59.88;97701.72;4969427;23;20247;-80
2021/01/25 00:55:59;;;;;;;0.40;0.40;;;;;;;2.28;60.13;97697.97;4950239;23;20254;-80
2021/01/25 00:58:26;;;;;;;0.40;0.40;;;;;;;2.39;59.80;97698.09;4972680;28;20561;-80
2021/01/25 01:01:24;;;;;;;0.40;0.40;;;;;;;2.46;59.72;97708.63;4972189;28;20242;-79
2021/01/25 01:04:30;;;;;;;0.40;0.40;;;;;;;2.44;59.95;97716.75;4972545;28;20266;-80
2021/01/25 01:07:00;;;;;;;0.40;0.40;;;;;;;2.30;59.86;97688.81;4985355;23;20227;-80
2021/01/25 01:09:45;;;;;;;0.40;0.40;;;;;;;2.32;60.19;97693.88;4973863;23;20535;-81
2021/01/25 01:12:34;;;;;;;0.40;0.40;;;;;;;2.33;59.22;97691.03;4968530;23;20219;-80
2021/01/25 01:15:28;;;;;;;0.40;0.40;;;;;;;2.46;59.92;97713.91;5068406;23;20234;-80
2021/01/25 01:18:19;;;;;;;0.30;0.30;;;;;;;2.33;59.26;97698.97;4978591;23;20750;-80
2021/01/25 01:21:26;;;;;;;0.40;0.40;;;;;;;2.32;59.26;97678.84;4953057;23;20235;-80
2021/01/25 01:24:06;;;;;;;0.40;0.40;;;;;;;2.52;59.04;97702.50;4948202;23;20655;-80
2021/01/25 01:27:00;;;;;;;0.40;0.40;;;;;;;2.44;58.98;97702.72;4956603;29;20175;-79
2021/01/25 01:29:30;;;;;;;0.40;0.40;;;;;;;2.53;58.89;97701.44;4955740;29;20290;-80
2021/01/25 01:32:43;;;;;;;0.40;0.40;;;;;;;2.40;59.13;97698.91;4976719;23;20215;-80
2021/01/25 01:35:42;;;;;;;0.40;0.40;;;;;;;2.44;58.99;97705.38;4962264;23;20313;-81
2021/01/25 01:38:39;;;;;;;0.40;0.40;;;;;;;2.36;59.34;97698.53;4961857;23;20322;-79
2021/01/25 01:41:35;;;;;;;0.40;0.40;;;;;;;2.41;59.18;97698.69;4967388;23;20250;-80
2021/01/25 01:44:26;;;;;;;0.40;0.40;;;;;;;2.41;59.31;97696.06;4968726;23;20238;-80
2021/01/25 01:47:05;;;;;;;0.40;0.40;;;;;;;2.21;59.94;97676.88;4966982;23;20237;-80
2021/01/25 01:49:33;;;;;;;0.40;0.40;;;;;;;2.29;59.22;97679.25;4955795;29;20183;-80
2021/01/25 01:52:26;;;;;;;0.40;0.40;;;;;;;2.42;59.32;97687.13;4955240;29;20228;-80
2021/01/25 01:55:52;;;;;;;0.40;0.40;;;;;;;2.38;59.36;97683.25;4956435;29;20255;-80
2021/01/25 01:58:51;;;;;;;0.40;0.40;;;;;;;2.29;60.07;97683.75;4977448;23;20218;-80
2021/01/25 02:01:22;;;;;;;0.50;0.50;;;;;;;2.29;59.81;97673.97;4952237;23;20251;-81
2021/01/25 02:04:19;;;;;;;0.40;0.40;;;;;;;2.17;59.87;97670.41;4914362;23;20209;-80
2021/01/25 02:07:18;;;;;;;0.50;0.50;;;;;;;2.18;60.26;97687.88;4905608;29;20182;-80
2021/01/25 02:10:05;;;;;;;0.40;0.40;;;;;;;2.07;60.18;97672.69;4917826;29;20225;-80
2021/01/25 02:12:37;;;;;;;0.40;0.40;;;;;;;2.06;60.32;97663.97;4912107;29;20228;-80
2021/01/25 02:15:10;;;;;;;0.40;0.40;;;;;;;1.98;60.14;97661.59;4933292;24;20245;31
2021/01/25 02:17:37;;;;;;;0.40;0.40;;;;;;;1.89;60.83;97669.97;4798855;29;20221;-80
2021/01/25 02:20:13;;;;;;;0.40;0.40;;;;;;;1.97;60.55;97673.16;4816790;29;20221;-80
2021/01/25 02:23:05;;;;;;;0.40;0.40;;;;;;;1.95;60.90;97679.69;4816176;29;20188;-80
2021/01/25 02:25:57;;;;;;;0.40;0.40;;;;;;;1.94;61.01;97689.44;4819176;29;20201;-80
2021/01/25 02:28:24;;;;;;;0.40;0.40;;;;;;;1.87;61.32;97664.09;4818968;29;20252;-80
2021/01/25 02:30:52;;;;;;;0.40;0.40;;;;;;;1.90;61.57;97682.16;4818354;29;20236;-79
2021/01/25 02:33:19;;;;;;;0.30;0.30;;;;;;;1.76;61.54;97674.31;4819491;29;20357;-80
2021/01/25 02:35:46;;;;;;;0.40;0.40;;;;;;;1.78;61.86;97680.19;4846265;23;20234;-80
2021/01/25 02:38:14;;;;;;;0.40;0.40;;;;;;;1.79;62.32;97691.53;4923032;23;20304;-80
2021/01/25 02:40:47;;;;;;;0.40;0.40;;;;;;;1.76;62.46;97684.06;4930796;29;20231;-80
2021/01/25 02:43:14;;;;;;;0.40;0.40;;;;;;;1.70;63.02;97680.44;4930033;29;20236;-80
2021/01/25 02:45:43;;;;;;;0.40;0.40;;;;;;;1.68;63.39;97679.03;4901532;29;20295;-80
2021/01/25 02:48:10;;;;;;;0.40;0.40;;;;;;;1.58;63.34;97670.75;4933153;29;20292;-80
2021/01/25 02:50:50;;;;;;;0.40;0.40;;;;;;;1.80;63.26;97701.09;4932669;29;20236;-80
2021/01/25 02:53:16;;;;;;;0.40;0.40;;;;;;;1.62;62.55;97675.41;4918910;29;20240;-80
2021/01/25 02:55:47;;;;;;;0.40;0.40;;;;;;;1.72;63.00;97694.25;4917911;29;20217;-80
2021/01/25 02:58:29;;;;;;;0.40;0.40;;;;;;;1.67;63.43;97706.44;4918937;29;20225;-80
2021/01/25 03:00:57;;;;;;;0.40;0.40;;;;;;;1.54;63.66;97688.81;4932027;29;20263;-80
2021/01/25 03:03:23;;;;;;;0.40;0.40;;;;;;;1.43;63.31;97678.09;4930267;29;20241;-80
2021/01/25 03:05:51;;;;;;;0.40;0.40;;;;;;;1.58;63.36;97699.78;4928336;23;20235;-80
2021/01/25 03:08:18;;;;;;;0.40;0.40;;;;;;;1.63;63.51;97705.25;4951417;28;20264;-80
2021/01/25 03:10:48;;;;;;;0.40;0.40;;;;;;;1.45;64.13;97691.88;4917222;29;20695;-80
2021/01/25 03:13:15;;;;;;;0.40;0.40;;;;;;;1.32;64.24;97680.38;4932952;29;20227;-80
2021/01/25 03:15:45;;;;;;;0.40;0.40;;;;;;;1.48;64.17;97704.69;4949145;29;20243;-80
2021/01/25 03:18:14;;;;;;;0.40;0.40;;;;;;;1.21;64.08;97675.72;4948477;29;20223;-80
2021/01/25 03:20:56;;;;;;;0.40;0.40;;;;;;;1.41;64.74;97707.34;4933610;29;20240;-80
2021/01/25 03:23:29;;;;;;;0.40;0.40;;;;;;;1.31;64.95;97696.41;4933720;29;20248;-80
2021/01/25 03:26:15;;;;;;;0.30;0.30;;;;;;;1.25;64.91;97700.69;4952533;29;20208;-80
2021/01/25 03:28:49;;;;;;;0.40;0.40;;;;;;;1.22;64.98;97692.38;4952166;29;20239;-80
2021/01/25 03:31:17;;;;;;;0.50;0.50;;;;;;;1.33;65.48;97702.28;4925168;23;20235;-80
2021/01/25 03:33:44;;;;;;;0.40;0.40;;;;;;;1.34;64.83;97698.63;4918242;29;20228;-80
2021/01/25 03:36:13;;;;;;;0.40;0.40;;;;;;;1.23;65.39;97684.25;4927530;29;20650;-80
2021/01/25 03:38:40;;;;;;;0.40;0.40;;;;;;;1.27;65.40;97701.28;4937328;23;20237;-80
2021/01/25 03:41:06;;;;;;;0.40;0.40;;;;;;;1.32;65.43;97682.19;4892029;29;20233;-80
2021/01/25 03:43:33;;;;;;;0.40;0.40;;;;;;;1.32;65.32;97679.56;4913281;29;20673;-80
2021/01/25 03:45:59;;;;;;;0.40;0.40;;;;;;;1.32;65.35;97680.38;4897646;29;20528;-80
2021/01/25 03:48:25;;;;;;;0.40;0.40;;;;;;;1.44;64.70;97696.38;4911220;29;20245;-80
2021/01/25 03:50:56;;;;;;;0.40;0.40;;;;;;;1.61;64.42;97697.53;4910304;29;20221;-80
2021/01/25 03:53:22;;;;;;;0.40;0.40;;;;;;;1.59;64.81;97690.81;4914196;29;20228;-80
2021/01/25 03:55:50;;;;;;;0.40;0.40;;;;;;;1.75;64.22;97708.84;4923280;29;20219;-80
2021/01/25 03:58:17;;;;;;;0.40;0.40;;;;;;;1.71;63.59;97707.63;4946774;29;20223;-80
2021/01/25 04:00:43;;;;;;;0.40;0.40;;;;;;;1.74;64.47;97709.84;4931981;29;20303;-81
2021/01/25 04:03:10;;;;;;;0.40;0.40;;;;;;;1.75;64.39;97714.13;4909604;29;20248;-80
2021/01/25 04:05:52;;;;;;;0.50;0.50;;;;;;;1.82;64.09;97719.38;4931190;29;20235;-80
2021/01/25 04:08:18;;;;;;;0.40;0.40;;;;;;;1.80;64.31;97719.56;4931896;29;20243;-80
2021/01/25 04:10:45;;;;;;;0.30;0.30;;;;;;;1.91;63.62;97734.78;4932300;29;20244;-80
2021/01/25 04:13:13;;;;;;;0.40;0.40;;;;;;;1.75;63.50;97700.91;4931988;29;20245;-80
2021/01/25 04:15:40;;;;;;;0.40;0.40;;;;;;;1.80;63.64;97719.56;4929091;29;20247;-80
2021/01/25 04:18:06;;;;;;;0.40;0.40;;;;;;;1.77;63.44;97709.44;4929435;29;20243;-80
2021/01/25 04:20:34;;;;;;;0.40;0.40;;;;;;;1.91;63.77;97733.97;4913109;29;20540;-80
2021/01/25 04:23:03;;;;;;;0.40;0.40;;;;;;;1.89;63.28;97730.72;4927403;29;20510;-80
2021/01/25 04:25:30;;;;;;;0.50;0.50;;;;;;;1.97;63.47;97756.88;4914089;29;20228;-80
2021/01/25 04:27:57;;;;;;;0.40;0.40;;;;;;;2.02;62.92;97757.88;4923951;23;20263;-81
2021/01/25 04:30:31;;;;;;;0.40;0.40;;;;;;;2.00;62.52;97751.19;4930843;29;20239;-80
2021/01/25 04:33:00;;;;;;;0.40;0.40;;;;;;;1.85;63.29;97743.53;4932608;29;20224;-80
2021/01/25 04:35:33;;;;;;;0.40;0.40;;;;;;;2.01;62.50;97764.16;4934392;29;20264;-80
2021/01/25 04:38:00;;;;;;;0.40;0.40;;;;;;;2.01;62.94;97748.31;4931549;29;20362;-80
2021/01/25 04:40:27;;;;;;;0.40;0.40;;;;;;;2.02;63.19;97760.50;4931009;29;20217;-80
2021/01/25 04:42:57;;;;;;;0.40;0.40;;;;;;;2.05;63.18;97761.94;4932191;29;20212;-80
2021/01/25 04:45:25;;;;;;;0.40;0.40;;;;;;;2.05;62.57;97767.22;4931328;29;20228;-80
2021/01/25 04:47:54;;;;;;;0.40;0.40;;;;;;;2.07;62.57;97763.34;4947203;23;20239;-80
2021/01/25 04:50:21;;;;;;;0.40;0.40;;;;;;;2.09;62.29;97763.94;4933889;29;20251;-80
2021/01/25 04:52:48;;;;;;;0.40;0.40;;;;;;;2.11;62.52;97761.88;4896734;23;20237;-80
2021/01/25 04:55:16;;;;;;;0.40;0.40;;;;;;;2.18;62.88;97769.78;4862714;29;20193;-80
2021/01/25 04:57:44;;;;;;;0.40;0.40;;;;;;;2.03;62.43;97763.97;4878254;29;20228;-80
2021/01/25 05:00:16;;;;;;;0.40;0.40;;;;;;;2.09;62.66;97774.50;4889778;23;20240;-80
2021/01/25 05:02:42;;;;;;;0.40;0.40;;;;;;;2.09;62.42;97774.50;4915224;29;20227;-80
2021/01/25 05:05:10;;;;;;;0.40;0.40;;;;;;;2.04;63.13;97769.03;4915013;29;20318;-80
2021/01/25 05:07:37;;;;;;;0.40;0.40;;;;;;;2.06;63.29;97780.19;4921287;29;20234;-80
2021/01/25 05:10:12;;;;;;;0.40;0.40;;;;;;;2.07;62.47;97779.19;4975681;23;20261;-80
2021/01/25 05:12:43;;;;;;;0.40;0.40;;;;;;;2.15;62.33;97789.50;4873877;23;20303;-80
2021/01/25 05:15:34;;;;;;;0.40;0.40;;;;;;;2.18;62.12;97781.16;4850358;29;20274;-80
2021/01/25 05:18:06;;;;;;;0.40;0.40;;;;;;;2.08;61.99;97767.59;4834839;29;20230;-80
2021/01/25 05:20:38;;;;;;;0.40;0.40;;;;;;;2.17;62.24;97787.47;4835506;29;20287;-80
2021/01/25 05:23:13;;;;;;;0.40;0.40;;;;;;;2.20;61.74;97789.69;4831832;29;20251;-80
2021/01/25 05:25:50;;;;;;;0.40;0.40;;;;;;;2.13;61.94;97782.81;4848836;29;20228;-80
2021/01/25 05:28:21;;;;;;;0.40;0.40;;;;;;;2.17;62.23;97792.75;4834690;29;20204;-80
2021/01/25 05:30:47;;;;;;;0.40;0.40;;;;;;;2.13;62.34;97796.03;4832946;29;20256;-80
2021/01/25 05:33:24;;;;;;;0.40;0.40;;;;;;;2.15;61.84;97800.06;4920683;23;20319;-81
2021/01/25 05:36:05;;;;;;;0.40;0.40;;;;;;;2.07;61.64;97781.00;4911847;29;20251;-80
2021/01/25 05:38:32;;;;;;;0.40;0.40;;;;;;;2.07;62.08;97789.75;4908693;29;20295;-80
2021/01/25 05:40:59;;;;;;;0.40;0.40;;;;;;;2.07;61.93;97784.47;4918205;29;20228;-79
2021/01/25 05:43:33;;;;;;;0.40;0.40;;;;;;;2.12;61.98;97789.94;5023594;23;20247;-79
2021/01/25 05:46:26;;;;;;;0.40;0.40;;;;;;;2.16;61.32;97792.94;4915637;29;20270;-79
2021/01/25 05:48:59;;;;;;;0.33;0.33;;;;;;;2.09;61.14;97786.91;4935425;29;20208;-80
2021/01/25 05:51:32;;;;;;;0.30;0.30;;;;;;;2.06;61.85;97780.19;4936279;29;20231;-80
2021/01/25 05:54:03;;;;;;;0.43;0.43;;;;;;;2.02;61.28;97773.72;4935330;29;20498;-80
2021/01/25 05:56:29;;;;;;;0.40;0.40;;;;;;;2.01;61.21;97787.13;4950270;29;20231;-80
2021/01/25 05:58:56;;;;;;;0.40;0.40;;;;;;;1.88;62.03;97777.44;4952797;29;20856;-80
2021/01/25 06:01:38;;;;;;;0.40;0.40;;;;;;;1.88;62.52;97781.91;4953974;29;20204;-79
2021/01/25 06:04:06;;;;;;;0.40;0.40;;;;;;;1.91;62.02;97782.31;4954195;28;20231;-80
2021/01/25 06:06:34;;;;;;;0.40;0.40;;;;;;;1.73;62.71;97768.94;4951086;29;20616;-79
2021/01/25 06:09:18;;;;;;;0.40;0.40;;;;;;;1.85;63.34;97798.97;4921904;29;20207;-80
2021/01/25 06:11:45;;;;;;;0.33;0.33;;;;;;;1.89;62.80;97810.75;4938148;29;20228;-80
2021/01/25 06:14:23;;;;;;;0.40;0.40;;;;;;;1.85;63.08;97811.38;4940953;29;20231;-79
2021/01/25 06:16:50;;;;;;;0.30;0.30;;;;;;;1.81;63.05;97810.16;4971319;29;20212;-80
2021/01/25 06:19:26;;;;;;;0.40;0.40;;;;;;;1.56;63.14;97779.16;4954644;29;20660;-80
2021/01/25 06:21:54;;;;;;;0.40;0.40;;;;;;;1.66;63.79;97797.22;4964092;28;20227;-80
2021/01/25 06:24:24;;;;;;;0.40;0.40;;;;;;;1.72;63.43;97815.69;4938622;29;20232;-80
2021/01/25 06:26:51;;;;;;;0.40;0.40;;;;;;;1.73;63.34;97814.63;4958180;29;20200;-80
2021/01/25 06:29:18;;;;;;;0.40;0.40;;;;;;;1.67;63.71;97818.13;4950473;23;20227;-80
2021/01/25 06:32:08;;;;;;;0.37;0.37;;;;;;;1.69;63.23;97823.19;4925224;29;20219;-80
2021/01/25 06:34:37;;;;;;;0.40;0.40;;;;;;;1.65;63.68;97820.16;4940776;29;20207;-80
2021/01/25 06:37:13;;;;;;;0.40;0.40;;;;;;;1.65;63.49;97824.63;4923290;29;20235;-80
2021/01/25 06:40:01;;;;;;;0.40;0.40;;;;;;;1.72;63.70;97846.56;4978183;23;20231;-82
2021/01/25 06:42:44;;;;;;;0.40;0.40;;;;;;;1.68;63.21;97840.06;4924863;29;20196;-80
2021/01/25 06:45:24;;;;;;;0.30;0.30;;;;;;;1.70;63.32;97846.75;4958799;23;20227;-81
2021/01/25 06:47:55;;;;;;;0.30;0.30;;;;;;;1.75;62.71;97839.03;4941221;23;20235;-80
2021/01/25 06:50:38;;;;;;;0.40;0.40;;;;;;;1.69;63.00;97837.19;4941401;23;20327;-81
2021/01/25 06:53:12;;;;;;;0.40;0.40;;;;;;;1.80;62.79;97853.44;4941081;29;20544;-81
2021/01/25 06:55:45;;;;;;;0.47;0.47;;;;;;;1.92;62.99;97852.56;4881078;29;20250;-80
2021/01/25 06:58:12;;;;;;;0.40;0.40;;;;;;;1.88;63.04;97851.38;4891998;23;20250;-81
2021/01/25 07:00:42;;;;;;;0.40;0.40;;;;;;;1.86;62.48;97842.03;4957738;28;20263;-80
2021/01/25 07:03:20;;;;;;;0.40;0.40;;;;;;;2.07;61.88;97860.25;4957478;28;20298;-81
2021/01/25 07:05:50;;;;;;;0.40;0.40;;;;;;;1.99;61.84;97844.66;4952927;28;20227;-81
2021/01/25 07:08:36;;;;;;;0.40;0.40;;;;;;;2.06;61.44;97862.09;4971124;23;20234;-81
2021/01/25 07:11:05;;;;;;;0.40;0.40;;;;;;;2.03;61.99;97857.22;4953221;23;20316;-80
2021/01/25 07:13:39;;;;;;;0.50;0.50;;;;;;;1.96;61.39;97847.72;4954798;29;20230;-84
2021/01/25 07:16:22;;;;;;;0.40;0.40;;;;;;;2.10;61.50;97863.28;4940521;29;20227;-81
2021/01/25 07:18:57;;;;;;;0.40;0.40;;;;;;;2.17;61.88;97865.91;4952926;29;20234;-81
2021/01/25 07:21:31;;;;;;;0.40;0.40;;;;;;;2.22;61.17;97868.75;4954541;29;20231;-80
2021/01/25 07:24:29;;;;;;;0.40;0.40;;;;;;;2.16;61.21;97845.78;4960051;23;20224;-81
2021/01/25 07:27:11;;;;;;;0.40;0.40;;;;;;;2.31;60.90;97862.22;4934017;29;20227;-81
2021/01/25 07:29:45;;;;;;;0.30;0.30;;;;;;;2.41;61.20;97872.31;4943516;23;20595;-81
2021/01/25 07:32:31;;;;;;;0.40;0.40;;;;;;;2.45;60.94;97876.97;4955192;28;20238;-83
2021/01/25 07:34:58;;;;;;;0.30;0.30;;;;;;;2.60;59.73;97876.72;4957487;23;20255;-81
2021/01/25 07:37:24;;;;;;;0.40;0.40;;;;;;;2.59;60.40;97877.72;4931814;23;20273;-81
2021/01/25 07:39:51;;;;;;;0.40;0.40;;;;;;;2.68;60.36;97879.09;4893989;29;20581;-81
2021/01/25 07:42:19;;;;;;;0.40;0.40;;;;;;;2.72;59.93;97876.84;4915587;23;20238;-81
2021/01/25 07:44:47;;;;;;;0.40;0.40;;;;;;;2.67;59.81;97870.34;4917684;29;20234;-81
2021/01/25 07:47:21;;;;;;;0.40;0.40;;;;;;;2.82;59.36;97888.59;4934552;29;20222;-81
2021/01/25 07:49:47;;;;;;;0.40;0.40;;;;;;;2.74;59.19;97870.34;4930811;23;20654;-80
2021/01/25 07:52:17;;;;;;;0.40;0.40;;;;;;;2.91;58.45;97886.50;4930801;29;20288;-81
2021/01/25 07:54:47;;;;;;;0.30;0.30;;;;;;;3.02;57.70;97891.94;4915069;23;20241;-81
2021/01/25 07:57:24;;;;;;;0.33;0.33;;;;;;;3.12;56.51;97885.34;4894965;29;20232;-81
2021/01/25 07:59:55;;;;;;;0.40;0.40;;;;;;;3.09;56.49;97878.66;4927067;29;20236;-81
2021/01/25 08:02:26;;;;;;;0.30;0.30;;;;;;;3.30;55.44;97891.53;4917059;29;20275;-80
2021/01/25 08:04:53;;;;;;;0.40;0.40;;;;;;;3.30;55.40;97880.13;4912624;29;20178;-80
2021/01/25 08:07:19;;;;;;;0.37;0.37;;;;;;;3.39;55.25;97894.72;4920549;29;20204;-81
2021/01/25 08:09:46;;;;;;;0.40;0.40;;;;;;;3.33;54.53;97880.50;4928354;29;20525;-81
2021/01/25 08:12:14;;;;;;;0.40;0.40;;;;;;;3.39;54.89;97887.59;4926678;29;20640;-81
2021/01/25 08:15:06;;;;;;;0.40;0.40;;;;;;;3.39;55.08;97889.44;4933810;29;20248;-81
2021/01/25 08:18:02;;;;;;;0.40;0.40;;;;;;;3.32;55.49;97875.41;4941971;23;20235;-82
2021/01/25 08:20:32;;;;;;;0.40;0.40;;;;;;;3.40;55.10;97891.06;4916335;29;20223;-81
2021/01/25 08:23:29;;;;;;;0.40;0.40;;;;;;;3.46;54.75;97887.53;4931595;29;20215;-80
2021/01/25 08:26:06;;;;;;;0.40;0.40;;;;;;;3.47;54.18;97889.97;4935632;23;20363;-82
2021/01/25 08:28:37;;;;;;;0.40;0.40;;;;;;;3.54;54.07;97890.75;4928453;29;20627;-80
2021/01/25 08:31:16;;;;;;;0.40;0.40;;;;;;;3.49;53.18;97863.28;4916756;29;20252;-81
2021/01/25 08:34:07;;;;;;;0.40;0.40;;;;;;;3.42;54.04;97860.69;4918165;29;20232;-81
2021/01/25 08:36:35;;;;;;;0.40;0.40;;;;;;;3.52;53.91;97886.66;4913610;23;20235;-81
2021/01/25 08:39:47;;;;;;;0.40;0.40;;;;;;;3.61;53.94;97879.25;4933506;29;20222;-80
2021/01/25 08:42:17;;;;;;;0.37;0.37;;;;;;;3.55;54.45;97878.28;4975865;23;20235;-81
2021/01/25 08:45:08;;;;;;;0.40;0.40;;;;;;;3.66;54.16;97895.31;4931836;29;20295;-80
2021/01/25 08:47:36;;;;;;;0.30;0.30;;;;;;;3.61;53.76;97876.59;4927974;29;20242;-81
2021/01/25 08:50:31;;;;;;;0.40;0.40;;;;;;;3.76;53.16;97892.97;4932538;29;20220;-81
2021/01/25 08:53:00;;;;;;;0.30;0.30;;;;;;;3.70;53.05;97881.41;4947963;23;20236;-81
2021/01/25 08:55:55;;;;;;;0.30;0.30;;;;;;;3.79;52.77;97882.75;4934978;29;20231;-81
2021/01/25 08:58:29;;;;;;;0.40;0.40;;;;;;;3.84;52.53;97896.16;4948335;28;20247;-81
2021/01/25 09:00:58;;;;;;;0.40;0.40;;;;;;;3.71;52.66;97869.78;4928799;29;20227;-81
2021/01/25 09:03:26;;;;;;;0.40;0.40;;;;;;;3.76;52.49;97871.78;4947781;29;20534;-81
2021/01/25 09:06:16;;;;;;;0.40;0.40;;;;;;;3.93;52.93;97894.84;4935947;23;20249;-81
2021/01/25 09:08:45;;;;;;;0.40;0.40;;;;;;;4.01;51.76;97888.47;4905391;29;20233;-80
2021/01/25 09:11:24;;;;;;;0.40;0.40;;;;;;;4.03;51.68;97896.16;4891671;29;20660;-81
2021/01/25 09:14:17;;;;;;;0.30;0.30;;;;;;;4.01;51.90;97871.75;4900541;29;20224;-81
2021/01/25 09:17:02;;;;;;;0.40;0.40;;;;;;;4.03;51.54;97867.03;4912364;29;20234;-80
2021/01/25 09:19:30;;;;;;;0.30;0.30;;;;;;;3.98;52.27;97873.78;4899531;29;20248;-81
2021/01/25 09:21:57;;;;;;;0.40;0.40;;;;;;;4.02;52.09;97866.22;4878575;29;20224;-80
2021/01/25 09:24:27;;;;;;;0.40;0.40;;;;;;;4.12;51.64;97884.25;4882720;29;20241;-80
2021/01/25 09:26:54;;;;;;;0.40;0.40;;;;;;;4.15;51.18;97874.03;4888897;23;20299;-81
2021/01/25 09:29:35;;;;;;;0.40;0.40;;;;;;;4.25;50.97;97882.25;4904779;23;20524;-81
2021/01/25 09:32:02;;;;;;;0.40;0.40;;;;;;;4.30;51.08;97895.66;4937688;29;20263;-80
2021/01/25 09:34:32;;;;;;;0.40;0.40;;;;;;;4.30;51.33;97893.00;4898846;23;20231;-82
2021/01/25 09:37:02;;;;;;;0.40;0.40;;;;;;;4.37;50.50;97904.38;4938076;23;20261;-81
2021/01/25 09:39:30;;;;;;;0.40;0.40;;;;;;;4.35;50.38;97893.16;4917995;29;20212;-81
2021/01/25 09:41:57;;;;;;;0.40;0.40;;;;;;;4.47;50.90;97901.19;4875095;23;20384;-81
2021/01/25 09:44:26;;;;;;;0.40;0.40;;;;;;;4.46;50.28;97896.91;4821974;29;20241;-81
2021/01/25 09:46:57;;;;;;;0.40;0.40;;;;;;;4.40;50.44;97897.78;4819922;29;20260;-81
2021/01/25 09:49:24;;;;;;;0.37;0.37;;;;;;;4.44;50.53;97912.22;4888180;23;20237;-81
2021/01/25 09:51:51;;;;;;;0.40;0.40;;;;;;;4.36;50.63;97905.41;4905718;29;20296;-81
2021/01/25 09:54:18;;;;;;;0.33;0.33;;;;;;;4.33;51.47;97886.47;4905931;29;20221;-81
2021/01/25 09:56:45;;;;;;;0.40;0.40;;;;;;;4.35;51.51;97889.69;4939914;23;20231;-81
2021/01/25 09:59:26;;;;;;;0.40;0.40;;;;;;;4.52;51.93;97914.59;4947601;23;20231;-82
2021/01/25 10:01:55;;;;;;;0.40;0.40;;;;;;;4.55;51.01;97892.94;4958331;23;20298;-82
2021/01/25 10:04:24;;;;;;;0.40;0.40;;;;;;;4.54;51.38;97885.19;4950492;23;20243;-81
2021/01/25 10:06:51;;;;;;;0.40;0.40;;;;;;;4.63;51.73;97911.19;4937960;23;20284;-82
2021/01/25 10:09:17;;;;;;;0.40;0.40;;;;;;;4.57;51.58;97884.75;4941305;23;20660;-82
2021/01/25 10:11:44;;;;;;;0.40;0.40;;;;;;;4.68;51.16;97897.25;4921237;29;20218;-81
2021/01/25 10:14:10;;;;;;;0.40;0.40;;;;;;;4.79;50.98;97888.53;4916328;23;20755;-81
2021/01/25 10:16:37;;;;;;;0.40;0.40;;;;;;;4.81;51.39;97891.75;4904902;29;20209;-81
2021/01/25 10:21:34;;;;;;;0.40;0.40;;;;;;;5.00;50.55;97889.88;4926460;23;20239;-81
2021/01/25 10:24:05;;;;;;;0.33;0.33;;;;;;;5.03;49.64;97905.38;4957506;28;20203;-81
2021/01/25 10:26:34;;;;;;;0.40;0.40;;;;;;;5.05;50.31;97892.66;4948450;23;20985;-81
2021/01/25 10:29:05;;;;;;;0.40;0.40;;;;;;;5.19;50.37;97905.53;4934785;29;20213;-81
2021/01/25 10:31:31;;;;;;;0.40;0.40;;;;;;;5.18;50.29;97895.94;4951199;23;20247;-80
2021/01/25 10:33:58;;;;;;;0.40;0.40;;;;;;;5.26;49.83;97903.59;4956209;28;20264;-80
2021/01/25 10:36:24;;;;;;;0.40;0.40;;;;;;;5.20;49.87;97877.94;4895572;23;20241;-81
2021/01/25 10:38:55;;;;;;;0.40;0.40;;;;;;;5.27;49.55;97891.91;4904992;23;20254;-81
2021/01/25 10:41:22;;;;;;;0.40;0.40;;;;;;;5.30;49.89;97895.97;4898466;29;20205;-80
2021/01/25 10:43:49;;;;;;;0.40;0.40;;;;;;;5.35;50.54;97889.97;4910792;23;20240;-80
2021/01/25 10:46:15;;;;;;;0.30;0.30;;;;;;;5.46;49.82;97891.84;4915949;23;20217;-80
2021/01/25 10:48:42;;;;;;;0.40;0.40;;;;;;;5.51;48.61;97881.31;4929097;29;20233;-81
2021/01/25 10:51:26;;;;;;;0.40;0.40;;;;;;;5.46;48.61;97881.22;4917904;29;20260;-80
2021/01/25 10:53:54;;;;;;;0.40;0.40;;;;;;;5.37;47.54;97883.38;4928371;29;20229;-80
2021/01/25 10:56:20;;;;;;;0.40;0.40;;;;;;;5.14;48.59;97870.88;4900336;29;20232;-81
2021/01/25 10:58:49;;;;;;;0.40;0.40;;;;;;;5.00;48.67;97890.69;4933589;29;20240;-80
2021/01/25 11:01:17;;;;;;;0.40;0.40;;;;;;;5.02;48.52;97895.78;4936767;23;20216;-80
2021/01/25 11:03:48;;;;;;;0.40;0.40;;;;;;;4.90;48.93;97901.03;4932083;29;20186;-81
2021/01/25 11:06:15;;;;;;;0.40;0.40;;;;;;;4.77;49.61;97878.16;4903979;23;20234;-80
2021/01/25 11:08:45;;;;;;;0.40;0.40;;;;;;;4.93;50.09;97897.94;4909736;29;20233;-81
2021/01/25 11:11:11;;;;;;;0.40;0.40;;;;;;;4.79;48.12;97877.94;4908763;29;20233;-80
2021/01/25 11:13:41;;;;;;;0.40;0.40;;;;;;;4.68;49.59;97882.13;4877084;29;20230;-81
2021/01/25 11:16:08;;;;;;;0.40;0.40;;;;;;;4.84;50.16;97902.75;4892055;29;20198;-81
2021/01/25 11:18:35;;;;;;;0.40;0.40;;;;;;;4.87;49.66;97888.22;4890475;23;20229;-81
2021/01/25 11:21:03;;;;;;;0.40;0.40;;;;;;;5.20;48.63;97904.50;4919406;23;20267;-81
2021/01/25 11:23:30;;;;;;;0.40;0.40;;;;;;;5.24;48.43;97895.03;4914574;29;20232;-81
2021/01/25 11:25:57;;;;;;;0.40;0.40;;;;;;;5.50;47.36;97908.94;4919877;23;20219;-81
2021/01/25 11:28:23;;;;;;;0.40;0.40;;;;;;;5.36;47.45;97883.63;4914615;29;20557;-81
2021/01/25 11:30:50;;;;;;;0.40;0.40;;;;;;;5.63;47.14;97900.75;4916915;29;20256;-81
2021/01/25 11:33:16;;;;;;;0.30;0.30;;;;;;;5.68;47.14;97906.19;4913319;29;20229;-81
2021/01/25 11:35:43;;;;;;;0.33;0.33;;;;;;;5.73;45.00;97916.94;4928388;29;20246;-81
2021/01/25 11:38:10;;;;;;;0.40;0.40;;;;;;;5.58;44.71;97913.91;4933304;28;20220;-81
2021/01/25 11:40:37;;;;;;;0.40;0.40;;;;;;;5.37;45.33;97901.97;4916484;29;20232;-81
2021/01/25 11:43:05;;;;;;;0.40;0.40;;;;;;;5.33;46.36;97901.63;4930052;29;20235;-81
2021/01/25 11:45:32;;;;;;;0.40;0.40;;;;;;;5.28;46.90;97896.19;4949803;28;20231;-81
2021/01/25 11:47:58;;;;;;;0.40;0.40;;;;;;;5.40;46.53;97906.03;4902517;29;20242;-81
2021/01/25 11:50:26;;;;;;;0.33;0.33;;;;;;;5.53;46.99;97903.16;4939627;23;20216;-82
2021/01/25 11:52:53;;;;;;;0.40;0.40;;;;;;;5.66;44.32;97894.97;4918409;29;20280;-81
2021/01/25 11:55:19;;;;;;;0.40;0.40;;;;;;;5.83;45.03;97892.47;4887755;23;20235;-81
2021/01/25 11:57:46;;;;;;;0.40;0.40;;;;;;;6.16;43.61;97906.78;4910681;23;20715;-80
2021/01/25 12:00:13;;;;;;;0.40;0.40;;;;;;;6.22;42.12;97912.22;4970450;29;20527;-81
2021/01/25 12:02:41;;;;;;;0.40;0.40;;;;;;;6.20;41.98;97910.59;4935648;28;20244;-81
2021/01/25 12:05:15;;;;;;;0.40;0.40;;;;;;;6.24;42.76;97896.84;4971597;28;20217;-81
2021/01/25 12:07:41;;;;;;;0.40;0.40;;;;;;;6.36;44.80;97902.94;4944191;29;20651;-81
2021/01/25 12:10:09;;;;;;;0.40;0.40;;;;;;;6.25;44.80;97893.16;4954932;28;20212;-81
2021/01/25 12:12:36;;;;;;;0.40;0.40;;;;;;;6.23;45.54;97912.00;4950192;28;20244;-81
2021/01/25 12:15:07;;;;;;;0.40;0.40;;;;;;;5.97;45.14;97893.88;4934983;29;20537;-81
2021/01/25 12:17:36;;;;;;;0.30;0.30;;;;;;;6.21;44.84;97908.75;4935843;23;20245;-81
2021/01/25 12:20:12;;;;;;;0.40;0.40;;;;;;;6.12;44.44;97887.03;4884595;23;1070135;31